createdAt,value
2019-04-21T00:01:10.595Z,5.93
2019-04-21T00:02:38.082Z,6.13
2019-04-21T00:04:12.425Z,5.77
2019-04-21T00:05:55.793Z,6.20
2019-04-21T00:07:13.479Z,5.70
2019-04-21T00:08:46.914Z,6.20
2019-04-21T00:10:12.339Z,5.87
2019-04-21T00:11:43.353Z,5.20
2019-04-21T00:13:02.701Z,6.22
2019-04-21T00:14:22.212Z,6.90
2019-04-21T00:15:48.868Z,5.63
2019-04-21T00:17:13.184Z,6.50
2019-04-21T00:19:02.337Z,5.75
2019-04-21T00:20:31.083Z,5.97
2019-04-21T00:21:56.601Z,5.77
2019-04-21T00:23:36.894Z,5.80
2019-04-21T00:24:56.834Z,6.28
2019-04-21T00:26:29.026Z,5.83
2019-04-21T00:27:50.380Z,5.08
2019-04-21T00:29:31.382Z,5.13
2019-04-21T00:30:50.840Z,5.13
2019-04-21T00:32:13.606Z,6.00
2019-04-21T00:33:31.943Z,5.30
2019-04-21T00:35:02.522Z,4.42
2019-04-21T00:36:25.953Z,4.70
2019-04-21T00:38:09.396Z,4.20
2019-04-21T00:39:43.639Z,4.35
2019-04-21T00:41:06.666Z,3.90
2019-04-21T00:42:29.087Z,4.67
2019-04-21T00:43:52.169Z,3.52
2019-04-21T00:45:18.182Z,3.75
2019-04-21T00:46:50.274Z,4.17
2019-04-21T00:48:23.328Z,3.70
2019-04-21T00:49:45.360Z,3.35
2019-04-21T00:54:29.380Z,4.20
2019-04-21T00:55:51.134Z,4.10
2019-04-21T00:57:17.305Z,3.37
2019-04-21T00:58:48.702Z,3.40
2019-04-21T01:00:11.873Z,3.33
2019-04-21T01:01:38.253Z,3.20
2019-04-21T01:03:09.331Z,3.80
2019-04-21T01:04:39.976Z,3.85
2019-04-21T01:05:56.099Z,3.52
2019-04-21T01:07:28.178Z,3.45
2019-04-21T01:08:55.700Z,3.33
2019-04-21T01:10:16.236Z,3.02
2019-04-21T01:11:51.869Z,4.00
2019-04-21T01:13:16.946Z,3.85
2019-04-21T01:14:53.959Z,3.65
2019-04-21T01:16:13.831Z,3.35
2019-04-21T01:17:35.272Z,3.45
2019-04-21T01:19:00.828Z,3.02
2019-04-21T01:20:16.957Z,3.47
2019-04-21T01:21:36.803Z,2.92
2019-04-21T01:23:02.449Z,3.22
2019-04-21T01:24:33.031Z,2.80
2019-04-21T01:26:06.869Z,3.60
2019-04-21T01:27:42.154Z,3.50
2019-04-21T01:29:07.010Z,3.08
2019-04-21T01:30:39.008Z,3.55
2019-04-21T01:32:10.521Z,3.37
2019-04-21T01:33:34.472Z,3.30
2019-04-21T01:34:59.394Z,4.20
2019-04-21T01:36:25.778Z,3.77
2019-04-21T01:37:58.413Z,4.17
2019-04-21T01:39:19.795Z,3.80
2019-04-21T01:40:47.626Z,4.20
2019-04-21T01:42:15.734Z,3.72
2019-04-21T01:43:42.309Z,3.85
2019-04-21T01:45:09.449Z,3.92
2019-04-21T01:46:33.641Z,3.98
2019-04-21T01:48:03.615Z,4.00
2019-04-21T01:49:24.505Z,4.25
2019-04-21T01:50:55.758Z,3.90
2019-04-21T01:52:31.808Z,3.35
2019-04-21T01:54:03.539Z,3.52
2019-04-21T01:55:46.689Z,3.70
2019-04-21T01:57:33.325Z,4.05
2019-04-21T01:58:49.375Z,4.35
2019-04-21T02:00:19.046Z,4.40
2019-04-21T02:01:52.404Z,4.03
2019-04-21T02:03:40.630Z,3.40
2019-04-21T02:04:55.778Z,3.00
2019-04-21T02:06:21.252Z,3.27
2019-04-21T02:07:44.765Z,3.55
2019-04-21T02:09:10.142Z,3.20
2019-04-21T02:10:47.712Z,3.65
2019-04-21T02:12:11.969Z,2.90
2019-04-21T02:13:35.453Z,2.52
2019-04-21T02:15:04.891Z,3.10
2019-04-21T02:16:31.332Z,2.40
2019-04-21T02:17:59.481Z,2.75
2019-04-21T02:19:21.568Z,2.65
2019-04-21T02:20:42.272Z,2.77
2019-04-21T02:22:24.608Z,3.05
2019-04-21T02:23:53.827Z,2.70
2019-04-21T02:25:18.496Z,3.02
2019-04-21T02:26:41.584Z,2.35
2019-04-21T02:28:12.313Z,2.80
2019-04-21T02:29:55.900Z,2.60
2019-04-21T02:32:43.418Z,2.35
2019-04-21T02:34:06.523Z,2.47
2019-04-21T02:35:40.273Z,2.25
2019-04-21T02:37:19.492Z,2.27
2019-04-21T02:38:40.256Z,2.85
2019-04-21T02:40:08.412Z,2.65
2019-04-21T02:41:28.348Z,2.27
2019-04-21T02:42:55.980Z,3.05
2019-04-21T02:44:24.340Z,2.33
2019-04-21T02:45:47.554Z,2.40
2019-04-21T02:48:50.880Z,2.70
2019-04-21T02:50:33.999Z,2.52
2019-04-21T02:51:57.926Z,2.58
2019-04-21T02:53:12.034Z,2.85
2019-04-21T02:56:00.236Z,2.50
2019-04-21T02:57:23.311Z,2.58
2019-04-21T02:59:17.302Z,2.40
2019-04-21T03:00:43.074Z,2.50
2019-04-21T03:02:35.132Z,2.85
2019-04-21T03:04:31.411Z,2.20
2019-04-21T03:07:46.389Z,2.35
2019-04-21T03:09:09.164Z,1.92
2019-04-21T03:18:37.690Z,2.10
2019-04-21T03:19:32.999Z,2.17
2019-04-21T03:20:49.693Z,2.10
2019-04-21T03:23:52.255Z,1.80
2019-04-21T03:26:36.596Z,2.10
2019-04-21T03:29:38.518Z,1.45
2019-04-21T03:38:20.877Z,1.60
2019-04-21T03:39:47.010Z,1.90
2019-04-21T03:42:52.964Z,1.75
2019-04-21T03:45:42.266Z,2.37
2019-04-21T03:47:06.957Z,1.70
2019-04-21T03:48:29.130Z,1.80
2019-04-21T03:50:08.724Z,1.60
2019-04-21T03:51:23.187Z,1.50
2019-04-21T03:53:00.632Z,1.80
2019-04-21T03:57:21.803Z,2.00
2019-04-21T03:58:47.041Z,2.00
2019-04-21T04:00:21.896Z,2.30
2019-04-21T04:02:35.017Z,2.12
2019-04-21T04:05:55.593Z,2.50
2019-04-21T04:07:42.499Z,3.02
2019-04-21T04:09:09.549Z,2.30
2019-04-21T04:13:34.300Z,1.60
2019-04-21T04:14:51.796Z,1.62
2019-04-21T04:16:22.160Z,1.42
2019-04-21T04:17:40.366Z,1.50
2019-04-21T04:19:19.236Z,1.40
2019-04-21T04:20:43.766Z,1.25
2019-04-21T04:23:41.459Z,1.30
2019-04-21T04:25:04.998Z,1.30
2019-04-21T04:26:37.398Z,1.17
2019-04-21T04:29:27.918Z,1.40
2019-04-21T04:33:59.940Z,1.30
2019-04-21T04:35:10.876Z,0.90
2019-04-21T04:37:03.447Z,1.20
2019-04-21T04:38:13.530Z,1.72
2019-04-21T04:39:48.850Z,1.20
2019-04-21T04:41:33.185Z,1.20
2019-04-21T04:43:13.170Z,0.93
2019-04-21T04:44:46.305Z,1.15
2019-04-21T04:46:04.274Z,1.17
2019-04-21T04:47:30.132Z,1.22
2019-04-21T04:49:10.648Z,1.17
2019-04-21T04:50:22.612Z,1.20
2019-04-21T04:52:09.747Z,1.20
2019-04-21T04:53:26.322Z,1.30
2019-04-21T04:56:12.191Z,1.47
2019-04-21T05:00:35.055Z,1.60
2019-04-21T05:02:20.572Z,1.10
2019-04-21T05:03:40.164Z,1.80
2019-04-21T05:05:11.335Z,1.30
2019-04-21T05:07:57.790Z,1.73
2019-04-21T05:09:27.044Z,1.80
2019-04-21T05:12:11.740Z,1.70
2019-04-21T05:13:51.149Z,1.50
2019-04-21T05:18:05.401Z,1.60
2019-04-21T05:19:32.730Z,1.50
2019-04-21T05:21:03.567Z,1.70
2019-04-21T05:22:25.984Z,2.87
2019-04-21T05:23:48.526Z,2.47
2019-04-21T05:25:12.154Z,2.80
2019-04-21T05:26:42.283Z,2.90
2019-04-21T05:28:00.110Z,2.40
2019-04-21T05:31:44.447Z,3.08
2019-04-21T05:33:39.909Z,2.83
2019-04-21T05:35:16.962Z,3.67
2019-04-21T05:37:07.198Z,3.55
2019-04-21T05:38:57.076Z,3.98
2019-04-21T05:40:33.529Z,4.75
2019-04-21T05:41:54.252Z,4.58
2019-04-21T05:43:32.446Z,3.90
2019-04-21T05:45:31.270Z,5.00
2019-04-21T05:46:25.458Z,4.58
2019-04-21T05:48:12.068Z,3.83
2019-04-21T05:54:19.303Z,4.92
2019-04-21T05:55:40.458Z,5.35
2019-04-21T05:56:59.808Z,4.90
2019-04-21T06:04:38.847Z,4.53
2019-04-21T06:09:39.753Z,4.55
2019-04-21T06:13:38.729Z,5.50
2019-04-21T06:14:54.368Z,4.75
2019-04-21T06:18:58.370Z,4.37
2019-04-21T06:20:34.967Z,4.72
2019-04-21T06:21:58.960Z,5.10
2019-04-21T06:23:30.496Z,4.35
2019-04-21T06:25:24.354Z,5.28
2019-04-21T06:27:58.716Z,5.62
2019-04-21T06:29:26.456Z,5.95
2019-04-21T06:33:20.226Z,5.28
2019-04-21T06:43:33.309Z,4.97
2019-04-21T06:49:25.012Z,4.60
2019-04-21T06:53:06.822Z,4.80
2019-04-21T06:54:35.552Z,4.78
2019-04-21T07:00:38.560Z,6.67
2019-04-21T07:04:27.600Z,5.15
2019-04-21T07:06:40.401Z,5.10
2019-04-21T07:10:12.234Z,4.55
2019-04-21T07:12:06.097Z,4.42
2019-04-21T07:14:22.445Z,6.08
2019-04-21T07:17:59.922Z,5.40
2019-04-21T07:21:45.796Z,4.90
2019-04-21T07:27:27.232Z,6.08
2019-04-21T07:33:44.737Z,4.45
2019-04-21T07:34:46.102Z,4.17
2019-04-21T07:40:12.361Z,5.28
2019-04-21T07:41:38.785Z,4.60
2019-04-21T07:43:40.963Z,4.72
2019-04-21T07:47:15.777Z,3.80
2019-04-21T07:48:49.457Z,3.65
2019-04-21T07:57:44.098Z,3.90
2019-04-21T08:03:20.714Z,4.25
2019-04-21T08:06:49.557Z,5.12
2019-04-21T08:08:01.591Z,5.97
2019-04-21T08:11:57.429Z,3.72
2019-04-21T08:15:23.989Z,3.62
2019-04-21T08:20:34.870Z,3.30
2019-04-21T08:24:00.184Z,3.98
2019-04-21T08:30:01.639Z,3.80
2019-04-21T08:31:32.316Z,3.20
2019-04-21T08:33:08.817Z,2.80
2019-04-21T08:37:04.053Z,3.22
2019-04-21T08:38:15.070Z,3.22
2019-04-21T08:41:17.048Z,3.05
2019-04-21T08:42:41.592Z,3.58
2019-04-21T08:44:06.946Z,3.50
2019-04-21T08:45:38.605Z,3.58
2019-04-21T08:47:09.640Z,4.00
2019-04-21T08:48:33.896Z,3.95
2019-04-21T08:49:53.842Z,4.10
2019-04-21T08:51:27.684Z,4.30
2019-04-21T08:54:21.498Z,4.53
2019-04-21T08:56:10.279Z,5.55
2019-04-21T08:58:05.201Z,4.90
2019-04-21T08:59:31.186Z,5.30
2019-04-21T09:01:04.068Z,5.03
2019-04-21T09:02:35.264Z,5.25
2019-04-21T09:03:59.783Z,6.05
2019-04-21T09:05:31.209Z,4.85
2019-04-21T09:08:28.068Z,7.17
2019-04-21T09:09:54.443Z,7.17
2019-04-21T09:11:16.209Z,5.80
2019-04-21T09:12:46.637Z,6.10
2019-04-21T09:14:13.724Z,4.92
2019-04-21T09:15:38.145Z,4.60
2019-04-21T09:17:00.492Z,4.95
2019-04-21T09:18:31.373Z,9.73
2019-04-21T09:20:11.903Z,8.50
2019-04-21T09:21:25.537Z,7.08
2019-04-21T09:22:54.247Z,8.13
2019-04-21T09:24:22.026Z,8.55
2019-04-21T09:25:53.036Z,8.00
2019-04-21T09:27:15.312Z,7.50
2019-04-21T09:28:39.476Z,6.70
2019-04-21T09:29:57.590Z,6.58
2019-04-21T09:31:25.953Z,6.45
2019-04-21T09:32:51.670Z,6.10
2019-04-21T09:34:22.384Z,4.87
2019-04-21T09:35:51.239Z,5.28
2019-04-21T09:37:20.321Z,6.90
2019-04-21T09:38:38.797Z,5.37
2019-04-21T09:40:04.959Z,5.45
2019-04-21T09:41:34.341Z,4.90
2019-04-21T09:43:03.251Z,4.65
2019-04-21T09:44:31.553Z,5.75
2019-04-21T09:45:54.133Z,5.58
2019-04-21T09:47:23.422Z,4.75
2019-04-21T09:48:59.048Z,5.15
2019-04-21T09:50:22.102Z,4.90
2019-04-21T09:51:48.301Z,4.95
2019-04-21T09:53:24.034Z,4.80
2019-04-21T09:54:52.045Z,4.78
2019-04-21T09:56:14.441Z,5.83
2019-04-21T09:57:43.119Z,6.35
2019-04-21T09:59:10.156Z,5.65
2019-04-21T10:00:36.330Z,6.20
2019-04-21T10:02:07.719Z,5.25
2019-04-21T10:03:24.681Z,5.10
2019-04-21T10:04:50.502Z,5.25
2019-04-21T10:06:18.754Z,6.65
2019-04-21T10:07:44.301Z,5.80
2019-04-21T10:09:14.338Z,5.65
2019-04-21T10:10:38.384Z,6.00
2019-04-21T10:12:05.527Z,5.70
2019-04-21T10:13:37.254Z,6.15
2019-04-21T10:15:04.195Z,5.75
2019-04-21T10:20:45.461Z,5.00
2019-04-21T10:22:11.058Z,5.53
2019-04-21T10:23:36.552Z,6.15
2019-04-21T10:25:02.971Z,6.40
2019-04-21T10:26:28.729Z,5.75
2019-04-21T10:27:54.920Z,5.80
2019-04-21T10:29:25.746Z,5.22
2019-04-21T10:30:48.981Z,6.42
2019-04-21T10:32:15.483Z,6.25
2019-04-21T10:33:42.068Z,5.45
2019-04-21T10:35:08.280Z,5.55
2019-04-21T10:36:35.038Z,5.25
2019-04-21T10:40:25.576Z,4.80
2019-04-21T10:41:51.178Z,4.20
2019-04-21T10:43:21.639Z,5.65
2019-04-21T10:44:45.123Z,5.95
2019-04-21T10:46:11.095Z,5.55
2019-04-21T10:47:37.222Z,5.50
2019-04-21T10:49:02.755Z,6.20
2019-04-21T10:50:28.758Z,7.75
2019-04-21T10:51:55.014Z,8.25
2019-04-21T10:53:34.459Z,7.67
2019-04-21T10:55:23.058Z,8.68
2019-04-21T10:56:33.242Z,6.80
2019-04-21T10:58:09.036Z,7.65
2019-04-21T10:59:35.325Z,6.57
2019-04-21T11:01:08.368Z,8.13
2019-04-21T11:02:48.846Z,7.58
2019-04-21T11:04:35.179Z,7.95
2019-04-21T11:05:58.944Z,8.45
2019-04-21T11:08:15.787Z,7.17
2019-04-21T11:09:33.944Z,8.50
2019-04-21T11:10:59.654Z,8.28
2019-04-21T11:12:25.871Z,9.33
2019-04-21T11:13:52.641Z,9.65
2019-04-21T11:15:19.081Z,10.23
2019-04-21T11:16:47.479Z,12.10
2019-04-21T11:18:15.708Z,11.35
2019-04-21T11:19:41.278Z,15.75
2019-04-21T11:21:07.127Z,12.07
2019-04-21T11:22:33.994Z,12.03
2019-04-21T11:23:59.992Z,10.63
2019-04-21T11:25:26.257Z,8.30
2019-04-21T11:26:52.033Z,9.15
2019-04-21T11:28:18.604Z,8.68
2019-04-21T11:29:44.568Z,9.40
2019-04-21T11:31:11.068Z,7.75
2019-04-21T11:32:37.082Z,8.35
2019-04-21T11:34:03.056Z,8.63
2019-04-21T11:35:28.834Z,8.90
2019-04-21T11:36:54.446Z,6.80
2019-04-21T11:38:27.311Z,8.60
2019-04-21T11:39:59.365Z,8.95
2019-04-21T11:41:19.661Z,7.70
2019-04-21T11:42:45.966Z,7.47
2019-04-21T11:44:12.090Z,8.45
2019-04-21T11:45:40.055Z,8.55
2019-04-21T11:47:08.388Z,9.25
2019-04-21T11:48:34.643Z,8.80
2019-04-21T11:50:01.120Z,8.08
2019-04-21T11:51:26.985Z,8.53
2019-04-21T11:52:52.883Z,8.13
2019-04-21T11:54:19.145Z,8.78
2019-04-21T11:55:47.016Z,7.40
2019-04-21T11:57:19.303Z,8.00
2019-04-21T11:58:39.905Z,8.80
2019-04-21T12:00:06.888Z,8.40
2019-04-21T12:01:33.809Z,8.30
2019-04-21T12:02:59.660Z,7.55
2019-04-21T12:04:25.441Z,8.30
2019-04-21T12:05:51.231Z,9.33
2019-04-21T12:07:17.553Z,8.78
2019-04-21T12:08:47.615Z,8.38
2019-04-21T12:10:11.318Z,8.73
2019-04-21T12:11:37.119Z,10.37
2019-04-21T12:13:05.553Z,7.97
2019-04-21T12:14:30.300Z,8.27
2019-04-21T12:15:57.134Z,9.75
2019-04-21T12:17:23.717Z,7.80
2019-04-21T12:18:49.286Z,8.00
2019-04-21T12:20:15.253Z,9.50
2019-04-21T12:21:53.453Z,9.80
2019-04-21T12:23:08.792Z,8.80
2019-04-21T12:24:36.808Z,9.58
2019-04-21T12:26:03.154Z,8.93
2019-04-21T12:27:29.835Z,7.10
2019-04-21T12:28:55.826Z,11.75
2019-04-21T12:30:21.881Z,20.93
2019-04-21T12:32:14.248Z,15.80
2019-04-21T12:33:56.145Z,10.40
2019-04-21T12:35:21.985Z,14.28
2019-04-21T12:36:48.634Z,10.90
2019-04-21T12:38:14.401Z,12.40
2019-04-21T12:39:59.011Z,13.32
2019-04-21T12:41:24.725Z,12.00
2019-04-21T12:42:50.444Z,13.77
2019-04-21T12:44:16.114Z,9.57
2019-04-21T12:45:42.026Z,8.40
2019-04-21T12:47:08.465Z,7.93
2019-04-21T12:48:35.831Z,6.70
2019-04-21T12:50:02.622Z,8.60
2019-04-21T12:51:30.072Z,7.45
2019-04-21T12:52:55.900Z,7.00
2019-04-21T12:54:21.727Z,8.07
2019-04-21T12:55:48.065Z,7.35
2019-04-21T12:57:14.014Z,6.10
2019-04-21T12:58:39.568Z,5.60
2019-04-21T13:01:39.450Z,6.85
2019-04-21T13:03:05.789Z,6.25
2019-04-21T13:04:31.595Z,6.27
2019-04-21T13:05:58.062Z,5.70
2019-04-21T13:07:23.931Z,7.30
2019-04-21T13:08:55.663Z,6.80
2019-04-21T13:10:18.132Z,5.73
2019-04-21T13:11:48.632Z,6.33
2019-04-21T13:13:14.550Z,5.42
2019-04-21T13:14:49.613Z,5.70
2019-04-21T13:16:23.352Z,6.22
2019-04-21T13:17:50.252Z,5.77
2019-04-21T13:19:15.832Z,6.97
2019-04-21T13:20:42.281Z,5.70
2019-04-21T13:22:08.132Z,5.80
2019-04-21T13:23:34.880Z,6.53
2019-04-21T13:25:00.569Z,5.80
2019-04-21T13:26:32.737Z,6.00
2019-04-21T13:27:54.386Z,5.93
2019-04-21T13:29:20.516Z,5.90
2019-04-21T13:30:46.376Z,5.50
2019-04-21T13:32:12.618Z,5.00
2019-04-21T13:33:39.780Z,5.10
2019-04-21T13:35:06.093Z,5.70
2019-04-21T13:36:31.808Z,5.50
2019-04-21T13:37:58.378Z,5.53
2019-04-21T13:40:01.573Z,5.03
2019-04-21T13:41:29.724Z,6.83
2019-04-21T13:42:46.701Z,5.55
2019-04-21T13:44:13.311Z,6.20
2019-04-21T13:45:39.472Z,6.05
2019-04-21T13:47:05.299Z,6.67
2019-04-21T13:48:30.888Z,5.90
2019-04-21T13:49:59.221Z,6.62
2019-04-21T13:51:23.427Z,6.25
2019-04-21T13:52:48.954Z,6.97
2019-04-21T13:54:15.669Z,7.70
2019-04-21T13:55:42.651Z,9.20
2019-04-21T13:57:08.419Z,8.18
2019-04-21T13:58:34.583Z,8.43
2019-04-21T14:00:01.337Z,7.50
2019-04-21T14:01:27.618Z,8.10
2019-04-21T14:02:54.593Z,6.55
2019-04-21T14:04:20.195Z,6.30
2019-04-21T14:05:46.510Z,6.63
2019-04-21T14:07:12.283Z,6.87
2019-04-21T14:08:40.186Z,7.50
2019-04-21T14:10:09.931Z,6.27
2019-04-21T14:11:33.577Z,7.90
2019-04-21T14:13:00.371Z,6.40
2019-04-21T14:14:26.226Z,6.70
2019-04-21T14:15:51.935Z,7.00
2019-04-21T14:17:17.478Z,6.10
2019-04-21T14:18:42.929Z,7.23
2019-04-21T14:20:10.899Z,6.30
2019-04-21T14:21:37.077Z,6.53
2019-04-21T14:23:13.524Z,6.00
2019-04-21T14:24:30.988Z,6.00
2019-04-21T14:25:57.517Z,6.90
2019-04-21T14:27:24.009Z,7.33
2019-04-21T14:28:49.646Z,6.93
2019-04-21T14:30:16.560Z,6.43
2019-04-21T14:31:42.245Z,7.60
2019-04-21T14:33:07.960Z,7.10
2019-04-21T14:34:34.043Z,5.93
2019-04-21T14:36:00.962Z,6.53
2019-04-21T14:37:26.625Z,6.50
2019-04-21T14:38:52.390Z,6.87
2019-04-21T14:40:23.645Z,6.93
2019-04-21T14:41:46.364Z,6.03
2019-04-21T14:43:12.062Z,6.33
2019-04-21T14:44:38.759Z,7.30
2019-04-21T14:46:26.947Z,6.17
2019-04-21T14:47:59.334Z,6.63
2019-04-21T14:49:51.017Z,5.73
2019-04-21T14:51:47.545Z,6.53
2019-04-21T14:53:20.200Z,5.90
2019-04-21T14:54:56.317Z,6.43
2019-04-21T14:56:22.185Z,7.60
2019-04-21T14:57:47.785Z,6.83
2019-04-21T14:59:13.443Z,5.83
2019-04-21T15:01:02.012Z,5.80
2019-04-21T15:02:27.864Z,6.70
2019-04-21T15:03:53.388Z,6.23
2019-04-21T15:05:19.702Z,7.33
2019-04-21T15:06:45.615Z,6.10
2019-04-21T15:08:11.159Z,6.80
2019-04-21T15:09:38.942Z,6.40
2019-04-21T15:11:05.134Z,6.43
2019-04-21T15:12:31.812Z,5.97
2019-04-21T15:13:57.842Z,5.93
2019-04-21T15:15:23.558Z,5.23
2019-04-21T15:16:49.153Z,5.50
2019-04-21T15:18:14.760Z,5.40
2019-04-21T15:19:42.916Z,6.47
2019-04-21T15:21:07.795Z,5.93
2019-04-21T15:22:34.562Z,7.03
2019-04-21T15:24:00.467Z,6.37
2019-04-21T15:25:26.105Z,7.50
2019-04-21T15:26:53.038Z,6.20
2019-04-21T15:28:19.976Z,5.70
2019-04-21T15:29:46.754Z,6.20
2019-04-21T15:31:23.095Z,5.07
2019-04-21T15:32:40.232Z,5.23
2019-04-21T15:34:07.314Z,6.70
2019-04-21T15:35:33.106Z,4.87
2019-04-21T15:36:59.800Z,5.80
2019-04-21T15:38:25.572Z,5.00
2019-04-21T15:39:51.200Z,5.57
2019-04-21T15:41:16.637Z,5.90
2019-04-21T15:42:42.252Z,5.07
2019-04-21T15:44:08.322Z,4.97
2019-04-21T15:45:35.016Z,5.10
2019-04-21T15:47:01.927Z,5.60
2019-04-21T15:48:28.807Z,5.43
2019-04-21T15:50:02.949Z,5.20
2019-04-21T15:51:22.067Z,6.33
2019-04-21T15:52:47.680Z,5.53
2019-04-21T15:54:14.392Z,5.60
2019-04-21T15:55:57.384Z,5.83
2019-04-21T15:57:35.539Z,4.80
2019-04-21T15:59:36.467Z,5.93
2019-04-21T16:01:08.175Z,5.47
2019-04-21T16:02:46.773Z,5.60
2019-04-21T16:04:12.662Z,5.80
2019-04-21T16:05:40.490Z,6.00
2019-04-21T16:07:06.117Z,5.37
2019-04-21T16:08:33.246Z,5.47
2019-04-21T16:09:59.824Z,6.07
2019-04-21T16:11:25.924Z,6.50
2019-04-21T16:12:52.158Z,6.53
2019-04-21T16:14:18.670Z,6.43
2019-04-21T16:15:44.336Z,5.53
2019-04-21T16:17:09.809Z,6.83
2019-04-21T16:18:36.301Z,5.50
2019-04-21T16:20:02.132Z,5.00
2019-04-21T16:21:27.691Z,5.20
2019-04-21T16:22:54.654Z,5.37
2019-04-21T16:24:21.273Z,4.97
2019-04-21T16:25:46.876Z,5.63
2019-04-21T16:27:12.650Z,5.63
2019-04-21T16:28:39.468Z,5.70
2019-04-21T16:30:07.934Z,6.23
2019-04-21T16:31:34.322Z,5.20
2019-04-21T16:33:01.946Z,6.33
2019-04-21T16:34:38.987Z,5.23
2019-04-21T16:35:55.950Z,5.23
2019-04-21T16:37:21.687Z,5.70
2019-04-21T16:38:47.289Z,6.23
2019-04-21T16:40:13.778Z,5.53
2019-04-21T16:41:40.375Z,6.03
2019-04-21T16:43:06.211Z,7.10
2019-04-21T16:44:31.758Z,5.40
2019-04-21T16:45:57.235Z,6.37
2019-04-21T16:47:24.052Z,5.63
2019-04-21T16:48:49.812Z,6.60
2019-04-21T16:50:16.292Z,6.90
2019-04-21T16:51:42.306Z,5.83
2019-04-21T16:53:24.063Z,6.13
2019-04-21T16:54:53.897Z,5.90
2019-04-21T16:56:39.612Z,5.77
2019-04-21T16:58:34.510Z,5.67
2019-04-21T17:00:04.878Z,7.00
2019-04-21T17:01:31.954Z,5.47
2019-04-21T17:02:58.803Z,6.00
2019-04-21T17:04:24.548Z,6.30
2019-04-21T17:05:50.184Z,5.77
2019-04-21T17:07:15.812Z,6.13
2019-04-21T17:08:41.238Z,6.57
2019-04-21T17:10:08.543Z,5.30
2019-04-21T17:11:37.235Z,5.57
2019-04-21T17:13:02.301Z,5.73
2019-04-21T17:14:45.054Z,5.83
2019-04-21T17:16:15.345Z,6.97
2019-04-21T17:17:43.334Z,6.13
2019-04-21T17:19:00.639Z,6.07
2019-04-21T17:20:33.362Z,5.77
2019-04-21T17:21:45.609Z,7.10
2019-04-21T17:23:11.617Z,7.67
2019-04-21T17:24:38.015Z,6.57
2019-04-21T17:26:03.722Z,6.07
2019-04-21T17:27:29.456Z,6.80
2019-04-21T17:28:56.459Z,5.93
2019-04-21T17:30:24.256Z,6.03
2019-04-21T17:31:49.952Z,6.63
2019-04-21T17:33:21.175Z,6.93
2019-04-21T17:34:43.753Z,6.20
2019-04-21T17:36:09.535Z,6.23
2019-04-21T17:37:36.214Z,7.30
2019-04-21T17:39:02.263Z,6.63
2019-04-21T17:40:29.566Z,6.90
2019-04-21T17:42:07.036Z,7.40
2019-04-21T17:43:23.732Z,8.03
2019-04-21T17:44:50.951Z,7.62
2019-04-21T17:46:24.453Z,7.03
2019-04-21T17:57:45.510Z,7.00
2019-04-21T17:59:28.000Z,7.93
2019-04-21T18:01:20.885Z,6.30
2019-04-21T18:02:51.493Z,6.87
2019-04-21T18:04:21.165Z,7.53
2019-04-21T18:05:59.488Z,6.63
2019-04-21T18:07:45.394Z,7.17
2019-04-21T18:09:12.248Z,7.08
2019-04-21T18:10:33.425Z,8.60
2019-04-21T18:12:05.759Z,7.60
2019-04-21T18:13:14.317Z,7.10
2019-04-21T18:14:51.864Z,7.17
2019-04-21T18:16:13.359Z,7.83
2019-04-21T18:17:34.206Z,7.93
2019-04-21T18:18:59.738Z,7.83
2019-04-21T18:20:30.028Z,8.90
2019-04-21T18:22:12.813Z,8.03
2019-04-21T18:24:00.739Z,7.83
2019-04-21T18:25:31.941Z,8.50
2019-04-21T18:26:55.407Z,7.57
2019-04-21T18:28:18.626Z,7.53
2019-04-21T18:29:44.554Z,7.20
2019-04-21T18:31:14.621Z,7.57
2019-04-21T18:32:42.461Z,7.97
2019-04-21T18:34:31.042Z,7.63
2019-04-21T18:36:34.632Z,8.83
2019-04-21T18:38:26.064Z,7.90
2019-04-21T18:40:02.410Z,8.23
2019-04-21T18:41:21.778Z,8.43
2019-04-21T18:43:27.656Z,10.40
2019-04-21T18:45:05.774Z,8.63
2019-04-21T18:46:34.143Z,9.37
2019-04-21T18:48:29.293Z,9.40
2019-04-21T18:49:50.303Z,8.73
2019-04-21T18:51:41.385Z,8.20
2019-04-21T18:53:13.678Z,9.70
2019-04-21T18:54:44.397Z,9.70
2019-04-21T18:56:03.933Z,10.73
2019-04-21T18:57:33.097Z,10.20
2019-04-21T18:58:51.166Z,10.83
2019-04-21T19:00:24.349Z,11.00
2019-04-21T19:01:51.540Z,11.57
2019-04-21T19:03:14.055Z,13.80
2019-04-21T19:04:40.534Z,10.73
2019-04-21T19:06:12.733Z,11.70
2019-04-21T19:07:58.443Z,13.57
2019-04-21T19:09:14.390Z,11.10
2019-04-21T19:10:52.292Z,12.00
2019-04-21T19:12:11.728Z,11.53
2019-04-21T19:14:15.004Z,11.00
2019-04-21T19:15:20.309Z,11.73
2019-04-21T19:21:14.125Z,11.20
2019-04-21T19:22:41.995Z,10.80
2019-04-21T19:24:20.217Z,9.73
2019-04-21T19:25:41.214Z,10.00
2019-04-21T19:27:08.019Z,9.60
2019-04-21T19:28:36.235Z,8.30
2019-04-21T19:30:05.465Z,9.30
2019-04-21T19:31:32.401Z,9.80
2019-04-21T19:32:52.926Z,8.87
2019-04-21T19:34:10.377Z,9.10
2019-04-21T19:35:29.820Z,9.17
2019-04-21T19:37:00.692Z,9.57
2019-04-21T19:38:31.662Z,6.50
2019-04-21T19:40:01.810Z,5.20
2019-04-21T19:41:32.750Z,4.67
2019-04-21T19:42:55.733Z,4.33
2019-04-21T19:44:30.705Z,4.00
2019-04-21T19:45:54.119Z,3.93
2019-04-21T19:47:28.094Z,3.67
2019-04-21T19:48:54.099Z,4.70
2019-04-21T19:50:19.420Z,4.03
2019-04-21T19:51:42.858Z,4.40
2019-04-21T19:53:03.435Z,4.30
2019-04-21T19:54:29.979Z,4.87
2019-04-21T19:55:50.007Z,7.30
2019-04-21T19:57:16.671Z,9.00
2019-04-21T19:58:45.504Z,9.27
2019-04-21T20:00:11.606Z,10.13
2019-04-21T20:01:37.515Z,13.13
2019-04-21T20:03:03.146Z,12.70
2019-04-21T20:04:34.118Z,14.20
2019-04-21T20:06:06.019Z,15.87
2019-04-21T20:07:39.885Z,17.33
2019-04-21T20:09:09.623Z,17.43
2019-04-21T20:10:42.272Z,19.83
2019-04-21T20:12:02.857Z,18.73
2019-04-21T20:13:40.843Z,16.90
2019-04-21T20:15:04.794Z,17.40
2019-04-21T20:16:34.006Z,18.10
2019-04-21T20:17:50.239Z,18.77
2019-04-21T20:19:07.775Z,18.70
2019-04-21T20:20:28.970Z,19.90
2019-04-21T20:21:54.596Z,20.03
2019-04-21T20:23:27.820Z,20.17
2019-04-21T20:24:56.428Z,19.83
2019-04-21T20:26:15.976Z,19.77
2019-04-21T20:27:52.822Z,18.60
2019-04-21T20:29:27.724Z,19.40
2019-04-21T20:31:00.234Z,18.67
2019-04-21T20:32:26.604Z,18.17
2019-04-21T20:33:59.614Z,19.20
2019-04-21T20:35:23.519Z,19.63
2019-04-21T20:36:51.856Z,19.00
2019-04-21T20:38:11.419Z,19.47
2019-04-21T20:39:25.355Z,20.40
2019-04-21T20:40:57.590Z,20.90
2019-04-21T20:42:34.647Z,18.20
2019-04-21T20:44:00.860Z,19.00
2019-04-21T20:46:55.542Z,18.57
2019-04-21T20:48:17.318Z,19.10
2019-04-21T20:49:41.530Z,19.90
2019-04-21T20:51:18.575Z,18.40
2019-04-21T20:52:47.884Z,19.40
2019-04-21T20:54:17.598Z,19.37
2019-04-21T20:55:35.443Z,19.10
2019-04-21T20:57:21.901Z,20.53
2019-04-21T20:58:37.277Z,19.23
2019-04-21T21:00:05.751Z,19.57
2019-04-21T21:01:37.544Z,20.40
2019-04-21T21:03:02.525Z,19.50
2019-04-21T21:04:17.209Z,19.30
2019-04-21T21:05:47.995Z,20.17
2019-04-21T21:07:28.310Z,20.90
2019-04-21T21:08:44.590Z,20.23
2019-04-21T21:10:17.909Z,19.40
2019-04-21T21:11:53.559Z,20.47
2019-04-21T21:13:16.495Z,19.20
2019-04-21T21:14:31.952Z,20.20
2019-04-21T21:16:12.206Z,19.40
2019-04-21T21:20:27.864Z,19.77
2019-04-21T21:21:48.645Z,18.33
2019-04-21T21:23:14.053Z,20.20
2019-04-21T21:24:46.371Z,18.80
2019-04-21T21:26:17.970Z,18.80
2019-04-21T21:27:36.780Z,18.07
2019-04-21T21:29:03.816Z,17.50
2019-04-21T21:30:32.300Z,16.97
2019-04-21T21:32:11.239Z,18.77
2019-04-21T21:33:26.694Z,18.10
2019-04-21T21:34:56.657Z,17.93
2019-04-21T21:36:24.050Z,17.47
2019-04-21T21:37:54.931Z,17.73
2019-04-21T21:39:18.340Z,19.03
2019-04-21T21:40:46.559Z,18.93
2019-04-21T21:42:01.852Z,18.50
2019-04-21T21:43:26.704Z,18.43
2019-04-21T21:44:58.632Z,19.40
2019-04-21T21:46:37.224Z,17.60
2019-04-21T21:48:00.727Z,18.90
2019-04-21T21:49:29.451Z,18.60
2019-04-21T21:50:49.955Z,17.40
2019-04-21T21:52:16.909Z,17.50
2019-04-21T21:53:38.156Z,19.20
2019-04-21T21:55:01.677Z,18.80
2019-04-21T21:56:29.174Z,18.50
2019-04-21T21:58:03.843Z,17.60
2019-04-21T21:59:33.068Z,18.73
2019-04-21T22:01:01.193Z,19.20
2019-04-21T22:02:34.949Z,19.30
2019-04-21T22:03:59.209Z,20.03
2019-04-21T22:05:25.436Z,19.90
2019-04-21T22:06:55.335Z,18.47
2019-04-21T22:08:16.382Z,18.13
2019-04-21T22:09:42.344Z,19.73
2019-04-21T22:11:08.840Z,19.20
2019-04-21T22:12:44.841Z,20.20
2019-04-21T22:14:05.708Z,20.07
2019-04-21T22:15:31.992Z,19.20
2019-04-21T22:17:11.095Z,20.63
2019-04-21T22:18:39.258Z,19.70
2019-04-21T22:20:12.197Z,20.90
2019-04-21T22:21:38.624Z,18.48
2019-04-21T22:22:54.283Z,18.37
2019-04-21T22:24:30.594Z,19.77
2019-04-21T22:25:41.854Z,18.77
2019-04-21T22:27:07.270Z,18.60
2019-04-21T22:28:33.785Z,20.15
2019-04-21T22:30:03.360Z,20.90
2019-04-21T22:31:31.561Z,21.50
2019-04-21T22:33:00.556Z,21.20
2019-04-21T22:34:27.775Z,20.00
2019-04-21T22:35:54.203Z,20.63
2019-04-21T22:37:30.762Z,22.90
2019-04-21T22:38:59.927Z,20.90